Bookmark and Share
Track history (hours):
 

MSC Corinna

Last reported at 2014-Apr-12 03:32 UTC. Time now 2014-Apr-20 11:37 UTC.
Position N 37°33' E 023°41'.
Warning: this ship's position is 8 days out of date.

Length 207 m; draft 8.9 m.

Type: Ship (hazmat cat A). MMSI: 351482000.

NotesDate/timePositionNaut miles runAvg speedWind from/ knotsBaromVisibWave heightAir tempDewpointWater temp
2014-Apr-12 03:32N 37°33' E 023°41'1616.8
2014-Apr-12 02:33N 37°49' E 023°37'9 8.8
2014-Apr-12 01:33N 37°57' E 023°36'0 0.0
2014-Apr-12 00:33N 37°57' E 023°36'0 0.0
2014-Apr-11 23:32N 37°57' E 023°36'0 0.0
2014-Apr-11 22:33N 37°57' E 023°36'0 0.0
2014-Apr-11 21:30N 37°57' E 023°36'0 0.0
2014-Apr-11 20:34N 37°57' E 023°36'0 0.0
2014-Apr-11 19:30N 37°57' E 023°36'0 0.0
2014-Apr-11 18:31N 37°57' E 023°36'0 0.0
2014-Apr-11 17:31N 37°57' E 023°36'0 0.0
2014-Apr-11 16:31N 37°57' E 023°36'0 0.0
2014-Apr-11 15:15N 37°57' E 023°36'0 0.0
2014-Apr-11 14:27N 37°57' E 023°36'0 0.0
2014-Apr-11 13:26N 37°57' E 023°36'0 0.0
2014-Apr-11 12:11N 37°57' E 023°36'2 2.9
2014-Apr-11 11:33N 37°56' E 023°36'2 1.8
2014-Apr-11 10:33N 37°54' E 023°37'1211.8
2014-Apr-11 09:33N 37°43' E 023°43'166 5.2
2014-Apr-10 01:16N 39°56' E 025°53'4014.5
2014-Apr-09 22:28N 40°19' E 026°36'1412.0
2014-Apr-09 21:18N 40°28' E 026°50'  
2014-Apr-06 06:30N 37°51' E 024°29'2512.8
2014-Apr-06 04:33N 37°33' E 024°07'4413.3
2014-Apr-06 01:17N 36°55' E 023°38'1013.0
2014-Apr-06 00:32N 36°47' E 023°32'1312.9
2014-Apr-05 23:33N 36°36' E 023°25'42813.2
2014-Apr-04 15:07N 36°41' E 014°31'1119.4
2014-Apr-04 14:33N 36°45' E 014°19'1615.8
2014-Apr-04 13:33N 36°51' E 014°01'1413.8
2014-Apr-04 12:33N 36°57' E 013°45'47414.3
2014-Apr-03 03:19N 38°52' E 004°02'3117.4
2014-Apr-03 01:33N 38°57' E 003°23'1717.3
2014-Apr-03 00:33N 38°60' E 003°01'1717.5
2014-Apr-02 23:33N 39°02' E 002°39'1515.1
2014-Apr-02 22:33N 39°05' E 002°20'1313.0
2014-Apr-02 21:33N 39°07' E 002°03'1312.5
2014-Apr-02 20:33N 39°09' E 001°47'1312.6
2014-Apr-02 19:32N 39°11' E 001°31'1413.4
2014-Apr-02 18:27N 39°14' E 001°13'  

Dump ship's entire track history

sailing weather and tide predictions

MSC Corinna — 3FPI7 — position and weather